Time;durP1;ratioP1;P1;durP2;ratioP2;P2;SDS_P1;SDS_P2;PMS_P1;PMS_P2;Temp;Humidity;BMP_temperature;BMP_pressure;BME280_temperature;BME280_humidity;BME280_pressure;Samples;Min_cycle;Max_cycle;Signal;HPM_P1;HPM_P2
2022/05/09 00:01:23;;;;;;;;;;;12.10;40.70;;;;;;5074919;28;19912;-87
2022/05/09 00:03:49;;;;;;;;;;;12.00;40.80;;;;;;5056573;28;20390;-87
2022/05/09 00:06:14;;;;;;;;;;;12.00;40.80;;;;;;5066120;28;19913;-87
2022/05/09 00:08:42;;;;;;;;;;;12.00;40.90;;;;;;5072907;28;19921;-87
2022/05/09 00:11:11;;;;;;;;;;;12.00;41.00;;;;;;5065180;28;19913;-86
2022/05/09 00:13:37;;;;;;;;;;;11.90;41.10;;;;;;5069508;28;19955;-86
2022/05/09 00:16:03;;;;;;;;;;;11.90;41.30;;;;;;5057950;28;21801;-86
2022/05/09 00:18:29;;;;;;;;;;;11.90;41.40;;;;;;5067813;28;19967;-86
2022/05/09 00:20:54;;;;;;;;;;;11.80;41.50;;;;;;5067819;28;19948;-86
2022/05/09 00:23:20;;;;;;;;;;;11.80;41.70;;;;;;5064811;28;19925;-86
2022/05/09 00:25:45;;;;;;;;;;;11.80;41.90;;;;;;5060485;28;19913;-86
2022/05/09 00:28:11;;;;;;;;;;;11.80;41.90;;;;;;5070801;28;19919;-86
2022/05/09 00:30:37;;;;;;;;;;;11.70;41.90;;;;;;5061964;28;20305;-86
2022/05/09 00:33:02;;;;;;;;;;;11.70;41.90;;;;;;5064981;28;19996;-87
2022/05/09 00:35:28;;;;;;;;;;;11.70;42.10;;;;;;5069271;28;19923;-86
2022/05/09 00:37:53;;;;;;;;;;;11.70;42.30;;;;;;5067033;28;20000;-86
2022/05/09 00:40:19;;;;;;;;;;;11.60;42.50;;;;;;5068122;28;19924;-86
2022/05/09 00:42:45;;;;;;;;;;;11.60;42.60;;;;;;5069137;28;20330;-86
2022/05/09 00:45:11;;;;;;;;;;;11.60;42.60;;;;;;5059861;28;19966;-86
2022/05/09 00:47:37;;;;;;;;;;;11.50;42.60;;;;;;5071899;28;20286;-86
2022/05/09 00:50:04;;;;;;;;;;;11.50;42.50;;;;;;5071386;28;19923;-86
2022/05/09 00:52:43;;;;;;;;;;;11.50;42.50;;;;;;5070015;28;19982;-87
2022/05/09 00:55:11;;;;;;;;;;;11.40;42.60;;;;;;5063284;28;19924;-86
2022/05/09 00:57:38;;;;;;;;;;;11.40;42.50;;;;;;5073172;28;20322;-87
2022/05/09 01:00:07;;;;;;;;;;;11.40;42.50;;;;;;5054726;28;19917;-86
2022/05/09 01:02:33;;;;;;;;;;;11.30;42.50;;;;;;5064106;28;19935;-86
2022/05/09 01:04:59;;;;;;;;;;;11.30;42.70;;;;;;5072878;28;19978;-87
2022/05/09 01:07:25;;;;;;;;;;;11.20;42.70;;;;;;5061086;28;19923;-87
2022/05/09 01:09:51;;;;;;;;;;;11.20;42.70;;;;;;5055326;28;19920;-87
2022/05/09 01:12:20;;;;;;;;;;;11.20;42.70;;;;;;5059325;28;20364;-86
2022/05/09 01:14:46;;;;;;;;;;;11.20;42.70;;;;;;5072553;28;19920;-87
2022/05/09 01:17:11;;;;;;;;;;;11.10;42.70;;;;;;5072079;28;19912;-87
2022/05/09 01:19:39;;;;;;;;;;;11.10;42.80;;;;;;5073707;28;19917;-87
2022/05/09 01:22:15;;;;;;;;;;;11.10;42.80;;;;;;5073578;28;19912;-87
2022/05/09 01:24:41;;;;;;;;;;;11.00;42.90;;;;;;5055865;28;19970;-86
2022/05/09 01:27:06;;;;;;;;;;;11.00;43.00;;;;;;5055556;28;19928;-86
2022/05/09 01:29:32;;;;;;;;;;;11.00;43.20;;;;;;5073708;28;19919;-86
2022/05/09 01:31:58;;;;;;;;;;;10.90;43.20;;;;;;5072885;28;19966;-86
2022/05/09 01:34:23;;;;;;;;;;;10.80;43.30;;;;;;5055924;28;19912;-86
2022/05/09 01:36:51;;;;;;;;;;;10.80;43.30;;;;;;5072279;28;20264;-86
2022/05/09 01:39:17;;;;;;;;;;;10.80;43.50;;;;;;5053802;28;19912;-85
2022/05/09 01:41:44;;;;;;;;;;;10.70;43.50;;;;;;5059342;28;19939;-86
2022/05/09 01:44:11;;;;;;;;;;;10.70;43.60;;;;;;5054357;28;20321;-87
2022/05/09 01:49:29;;;;;;;;;;;10.70;43.60;;;;;;5073587;28;20344;-86
2022/05/09 01:49:29;;;;;;;;;;;10.70;43.70;;;;;;5073944;28;19920;-86
2022/05/09 01:51:55;;;;;;;;;;;10.60;43.80;;;;;;5073289;28;19922;-85
2022/05/09 01:54:20;;;;;;;;;;;10.60;43.80;;;;;;5054474;28;19912;-86
2022/05/09 01:56:46;;;;;;;;;;;10.50;43.80;;;;;;5055125;28;19977;-86
2022/05/09 01:59:12;;;;;;;;;;;10.60;44.00;;;;;;5072397;28;19916;-86
2022/05/09 02:01:40;;;;;;;;;;;10.50;44.10;;;;;;5065438;28;19916;-86
2022/05/09 02:04:06;;;;;;;;;;;10.50;44.40;;;;;;5054333;28;19913;-86
2022/05/09 02:06:31;;;;;;;;;;;10.50;44.20;;;;;;5056674;28;19920;-86
2022/05/09 02:08:56;;;;;;;;;;;10.50;44.40;;;;;;5073237;28;19965;-86
2022/05/09 02:11:22;;;;;;;;;;;10.40;44.40;;;;;;5044818;28;20404;-87
2022/05/09 02:13:47;;;;;;;;;;;10.40;44.40;;;;;;5072565;28;20292;-86
2022/05/09 02:16:13;;;;;;;;;;;10.30;44.40;;;;;;5071743;28;19920;-86
2022/05/09 02:18:38;;;;;;;;;;;10.30;44.40;;;;;;5055172;28;20279;-86
2022/05/09 02:21:04;;;;;;;;;;;10.30;44.40;;;;;;5073386;28;20299;-86
2022/05/09 02:23:30;;;;;;;;;;;10.30;44.60;;;;;;5073666;28;20006;-86
2022/05/09 02:25:55;;;;;;;;;;;10.30;44.60;;;;;;5059207;28;19932;-86
2022/05/09 02:28:21;;;;;;;;;;;10.20;44.60;;;;;;5052877;28;19917;-86
2022/05/09 02:30:47;;;;;;;;;;;10.20;44.60;;;;;;5071369;28;19917;-87
2022/05/09 02:33:13;;;;;;;;;;;10.20;44.60;;;;;;5054559;28;19999;-87
2022/05/09 02:35:39;;;;;;;;;;;10.20;44.70;;;;;;5058931;28;19924;-87
2022/05/09 02:38:04;;;;;;;;;;;10.10;44.90;;;;;;5083016;28;19947;-87
2022/05/09 02:40:30;;;;;;;;;;;10.10;44.90;;;;;;5073761;28;20271;-86
2022/05/09 02:42:58;;;;;;;;;;;10.10;44.90;;;;;;5069076;28;19912;-86
2022/05/09 02:45:24;;;;;;;;;;;10.00;45.00;;;;;;5060261;28;19927;-87
2022/05/09 02:47:50;;;;;;;;;;;10.00;45.20;;;;;;5051638;28;19928;-86
2022/05/09 02:50:16;;;;;;;;;;;10.00;45.90;;;;;;5053407;28;19913;-86
2022/05/09 02:52:42;;;;;;;;;;;10.00;46.00;;;;;;5060257;28;19912;-87
2022/05/09 02:55:11;;;;;;;;;;;10.00;46.30;;;;;;5051958;28;19935;-87
2022/05/09 02:57:36;;;;;;;;;;;10.00;46.10;;;;;;5072271;28;19913;-85
2022/05/09 03:00:06;;;;;;;;;;;10.00;45.90;;;;;;5073218;28;20330;-86
2022/05/09 03:02:33;;;;;;;;;;;10.00;45.90;;;;;;5068710;28;19950;-85
2022/05/09 03:04:59;;;;;;;;;;;9.90;45.80;;;;;;5058161;28;20237;-86
2022/05/09 03:07:24;;;;;;;;;;;9.90;45.80;;;;;;5075527;28;19927;-86
2022/05/09 03:09:51;;;;;;;;;;;9.90;45.90;;;;;;5062337;28;19984;-86
2022/05/09 03:12:20;;;;;;;;;;;9.80;45.90;;;;;;5061015;28;20299;-86
2022/05/09 03:14:47;;;;;;;;;;;9.80;45.80;;;;;;5075276;28;20326;-86
2022/05/09 03:17:13;;;;;;;;;;;9.80;45.70;;;;;;5061754;28;19925;-86
2022/05/09 03:19:38;;;;;;;;;;;9.80;45.80;;;;;;5056711;28;19917;-86
2022/05/09 03:22:04;;;;;;;;;;;9.80;45.80;;;;;;5076242;28;19920;-86
2022/05/09 03:24:29;;;;;;;;;;;9.80;45.80;;;;;;5056088;28;20011;-86
2022/05/09 03:26:55;;;;;;;;;;;9.80;45.80;;;;;;5074654;28;19924;-86
2022/05/09 03:29:24;;;;;;;;;;;9.70;45.80;;;;;;5046260;28;19924;-86
2022/05/09 03:31:52;;;;;;;;;;;9.70;45.90;;;;;;5056395;28;19970;-86
2022/05/09 03:34:17;;;;;;;;;;;9.80;45.90;;;;;;5073171;28;20323;-86
2022/05/09 03:36:42;;;;;;;;;;;9.80;46.00;;;;;;5049670;28;19923;-85
2022/05/09 03:39:08;;;;;;;;;;;9.70;46.00;;;;;;5072337;28;19919;-87
2022/05/09 03:41:34;;;;;;;;;;;9.70;45.90;;;;;;5072515;28;20410;-86
2022/05/09 03:43:59;;;;;;;;;;;9.70;46.00;;;;;;5073394;28;20032;-86
2022/05/09 03:46:25;;;;;;;;;;;9.70;46.10;;;;;;5072962;28;19921;-86
2022/05/09 03:48:50;;;;;;;;;;;9.70;46.10;;;;;;5074601;28;19993;-86
2022/05/09 03:51:16;;;;;;;;;;;9.80;46.20;;;;;;5063665;28;19917;-86
2022/05/09 03:53:41;;;;;;;;;;;9.70;46.50;;;;;;5072293;28;19920;-85
2022/05/09 03:56:07;;;;;;;;;;;9.80;46.80;;;;;;5054765;28;19923;-86
2022/05/09 03:58:33;;;;;;;;;;;9.90;47.00;;;;;;5067799;28;19916;-86
2022/05/09 04:00:58;;;;;;;;;;;9.90;47.30;;;;;;5056884;28;20347;-86
2022/05/09 04:03:24;;;;;;;;;;;10.00;47.50;;;;;;5073940;28;19979;-87
2022/05/09 04:05:49;;;;;;;;;;;10.20;47.80;;;;;;5075030;28;19928;-87
2022/05/09 04:08:16;;;;;;;;;;;10.30;48.10;;;;;;5071961;28;19920;-86
2022/05/09 04:10:42;;;;;;;;;;;10.50;48.20;;;;;;5058959;28;19938;-87
2022/05/09 04:13:09;;;;;;;;;;;10.70;48.50;;;;;;5060503;28;20377;-86
2022/05/09 04:18:21;;;;;;;;;;;11.30;49.00;;;;;;5074529;28;19923;-86
2022/05/09 04:20:48;;;;;;;;;;;11.60;49.40;;;;;;5060598;28;19916;-87
2022/05/09 04:23:14;;;;;;;;;;;11.80;49.60;;;;;;5067111;28;19913;-87
2022/05/09 04:25:40;;;;;;;;;;;12.20;49.70;;;;;;5074741;28;19920;-88
2022/05/09 04:28:06;;;;;;;;;;;12.50;49.70;;;;;;5074931;28;19985;-88
2022/05/09 04:30:32;;;;;;;;;;;12.80;49.60;;;;;;5056049;28;20398;-87
2022/05/09 04:32:58;;;;;;;;;;;13.20;49.60;;;;;;5065301;28;20364;-86
2022/05/09 04:35:24;;;;;;;;;;;13.50;49.40;;;;;;5057381;28;19932;-86
2022/05/09 04:37:52;;;;;;;;;;;13.90;49.20;;;;;;5067982;28;19917;-86
2022/05/09 04:40:18;;;;;;;;;;;14.20;49.00;;;;;;5059247;28;19962;-86
2022/05/09 04:42:44;;;;;;;;;;;14.60;48.90;;;;;;5066877;28;20387;-85
2022/05/09 04:45:14;;;;;;;;;;;14.90;48.80;;;;;;5075199;28;19997;-85
2022/05/09 04:47:39;;;;;;;;;;;15.30;48.50;;;;;;5041879;28;19921;-86
2022/05/09 04:50:06;;;;;;;;;;;15.70;48.40;;;;;;5071647;28;20279;-86
2022/05/09 04:52:32;;;;;;;;;;;16.10;48.20;;;;;;5069683;28;20315;-86
2022/05/09 04:54:57;;;;;;;;;;;16.50;48.00;;;;;;5060390;28;19913;-86
2022/05/09 04:57:22;;;;;;;;;;;16.90;47.50;;;;;;5067082;28;19923;-86
2022/05/09 04:59:48;;;;;;;;;;;17.30;47.10;;;;;;5074061;28;20003;-86
2022/05/09 05:02:13;;;;;;;;;;;17.80;46.50;;;;;;5064195;28;19927;-86
2022/05/09 05:04:39;;;;;;;;;;;18.20;46.00;;;;;;5074368;28;19916;-86
2022/05/09 05:07:05;;;;;;;;;;;18.70;45.50;;;;;;5071939;28;19928;-87
2022/05/09 05:09:31;;;;;;;;;;;19.10;45.10;;;;;;5066950;28;20380;-88
2022/05/09 05:11:57;;;;;;;;;;;19.50;44.50;;;;;;5064669;28;19931;-87
2022/05/09 05:14:23;;;;;;;;;;;19.90;43.70;;;;;;5072064;28;19999;-86
2022/05/09 05:17:00;;;;;;;;;;;20.30;43.50;;;;;;5067092;28;19948;-86
2022/05/09 05:19:27;;;;;;;;;;;20.80;43.30;;;;;;5074311;28;19951;-86
2022/05/09 05:21:52;;;;;;;;;;;21.30;42.70;;;;;;5073052;28;19966;-86
2022/05/09 05:24:18;;;;;;;;;;;21.70;41.90;;;;;;5069955;28;20010;-86
2022/05/09 05:26:43;;;;;;;;;;;22.10;40.80;;;;;;5064336;28;19960;-87
2022/05/09 05:29:09;;;;;;;;;;;22.50;40.10;;;;;;5072315;28;19921;-87
2022/05/09 05:31:34;;;;;;;;;;;22.90;39.20;;;;;;5085824;28;19925;-87
2022/05/09 05:34:00;;;;;;;;;;;23.30;38.50;;;;;;5060276;28;19913;-87
2022/05/09 05:36:27;;;;;;;;;;;23.70;37.80;;;;;;5075105;28;19917;-87
2022/05/09 05:38:52;;;;;;;;;;;24.00;36.90;;;;;;5074129;28;20340;-87
2022/05/09 05:41:19;;;;;;;;;;;24.40;36.30;;;;;;5066418;28;19952;-88
2022/05/09 05:43:44;;;;;;;;;;;24.70;35.50;;;;;;5064883;28;19919;-86
2022/05/09 05:46:10;;;;;;;;;;;24.90;34.30;;;;;;5074022;28;19921;-87
2022/05/09 05:48:36;;;;;;;;;;;25.30;33.80;;;;;;5067206;28;19924;-88
2022/05/09 05:51:01;;;;;;;;;;;25.60;33.50;;;;;;5064141;28;20280;-86
2022/05/09 05:53:27;;;;;;;;;;;25.90;33.10;;;;;;5073983;28;20308;-86
2022/05/09 05:55:52;;;;;;;;;;;26.30;32.70;;;;;;5073300;28;19928;-87
2022/05/09 05:58:18;;;;;;;;;;;26.70;32.10;;;;;;5065068;28;19956;-87
2022/05/09 06:00:43;;;;;;;;;;;27.00;31.50;;;;;;5065612;28;19933;-88
2022/05/09 06:03:09;;;;;;;;;;;27.30;30.90;;;;;;5067831;28;19919;-88
2022/05/09 06:05:34;;;;;;;;;;;27.70;30.40;;;;;;5073486;28;19917;-86
2022/05/09 06:08:00;;;;;;;;;;;28.00;29.60;;;;;;5070291;28;19929;-88
2022/05/09 06:10:26;;;;;;;;;;;28.30;28.90;;;;;;5071047;28;19966;-88
2022/05/09 06:12:53;;;;;;;;;;;28.60;28.50;;;;;;5067621;28;19916;-86
2022/05/09 06:15:34;;;;;;;;;;;28.70;28.20;;;;;;5062422;28;20001;-86
2022/05/09 06:18:00;;;;;;;;;;;29.00;28.20;;;;;;5060805;28;19962;-88
2022/05/09 06:20:31;;;;;;;;;;;29.30;28.00;;;;;;5070519;28;20437;-87
2022/05/09 06:22:59;;;;;;;;;;;29.80;27.50;;;;;;5058622;28;19919;-87
2022/05/09 06:25:25;;;;;;;;;;;30.20;27.00;;;;;;5063569;28;19931;-87
2022/05/09 06:27:51;;;;;;;;;;;30.70;26.70;;;;;;5063273;28;19925;-87
2022/05/09 06:30:17;;;;;;;;;;;30.80;25.40;;;;;;5070725;28;19927;-88
2022/05/09 06:32:43;;;;;;;;;;;31.10;25.10;;;;;;5060281;28;19916;-87
2022/05/09 06:35:10;;;;;;;;;;;31.30;24.60;;;;;;5070985;28;19924;-88
2022/05/09 06:37:37;;;;;;;;;;;31.50;24.70;;;;;;5059529;28;19924;-87
2022/05/09 06:40:03;;;;;;;;;;;31.80;24.70;;;;;;5069644;28;19967;-88
2022/05/09 06:42:29;;;;;;;;;;;32.10;23.60;;;;;;5070234;28;19947;-87
2022/05/09 06:44:55;;;;;;;;;;;32.30;23.40;;;;;;5064417;28;19956;-86
2022/05/09 06:47:20;;;;;;;;;;;32.40;23.20;;;;;;5057413;28;19928;-86
2022/05/09 06:49:46;;;;;;;;;;;32.70;23.10;;;;;;5070648;28;20539;-86
2022/05/09 06:52:11;;;;;;;;;;;33.00;22.70;;;;;;5072582;28;19921;-86
2022/05/09 06:54:37;;;;;;;;;;;33.20;21.80;;;;;;5059425;28;19912;-86
2022/05/09 06:57:02;;;;;;;;;;;33.30;21.30;;;;;;5067726;28;19942;-86
2022/05/09 06:59:30;;;;;;;;;;;33.40;21.20;;;;;;5064772;28;19916;-86
2022/05/09 07:01:55;;;;;;;;;;;33.60;20.10;;;;;;5071379;28;19924;-86
2022/05/09 07:04:21;;;;;;;;;;;33.30;19.40;;;;;;5061042;28;19917;-87
2022/05/09 07:06:46;;;;;;;;;;;33.30;19.60;;;;;;5066275;28;19963;-87
2022/05/09 07:09:13;;;;;;;;;;;33.40;19.50;;;;;;5062434;28;20294;-87
2022/05/09 07:11:39;;;;;;;;;;;33.50;19.40;;;;;;5073240;28;19920;-87
2022/05/09 07:14:04;;;;;;;;;;;33.70;19.10;;;;;;5075736;28;20720;-87
2022/05/09 07:16:30;;;;;;;;;;;33.80;19.00;;;;;;5070524;28;19924;-87
2022/05/09 07:18:56;;;;;;;;;;;33.80;18.80;;;;;;5067689;28;19923;-87
2022/05/09 07:21:21;;;;;;;;;;;33.80;18.90;;;;;;5070450;28;19923;-86
2022/05/09 07:23:47;;;;;;;;;;;34.00;18.80;;;;;;5071045;28;19913;-87
2022/05/09 07:26:12;;;;;;;;;;;34.20;18.40;;;;;;5070955;28;19917;-86
2022/05/09 07:28:39;;;;;;;;;;;34.30;18.50;;;;;;5063683;28;20014;-87
2022/05/09 07:31:05;;;;;;;;;;;34.40;18.30;;;;;;5069722;28;19916;-87
2022/05/09 07:33:30;;;;;;;;;;;34.40;18.20;;;;;;5072084;28;19929;-88
2022/05/09 07:35:56;;;;;;;;;;;34.50;18.60;;;;;;5082489;28;19908;-89
2022/05/09 07:38:21;;;;;;;;;;;34.80;18.40;;;;;;5083760;28;19956;-89
2022/05/09 07:40:47;;;;;;;;;;;35.10;18.30;;;;;;5069326;28;19996;-88
2022/05/09 07:43:15;;;;;;;;;;;35.20;17.80;;;;;;5080371;28;19920;-88
2022/05/09 07:45:41;;;;;;;;;;;35.30;17.30;;;;;;5082264;28;19916;-86
2022/05/09 07:48:07;;;;;;;;;;;35.30;17.40;;;;;;5069886;28;20308;-88
2022/05/09 07:50:33;;;;;;;;;;;35.30;17.60;;;;;;5080882;28;19917;-88
2022/05/09 07:52:58;;;;;;;;;;;35.50;17.50;;;;;;5077198;28;19938;-88
2022/05/09 07:55:24;;;;;;;;;;;35.80;17.40;;;;;;5094267;28;19971;-88
2022/05/09 07:57:49;;;;;;;;;;;36.00;17.10;;;;;;5093979;28;19913;-87
2022/05/09 08:00:15;;;;;;;;;;;36.30;16.60;;;;;;5083880;28;19943;-87
2022/05/09 08:02:40;;;;;;;;;;;36.50;16.90;;;;;;5083529;28;19935;-86
2022/05/09 08:05:10;;;;;;;;;;;36.80;16.80;;;;;;5063614;28;19920;-87
2022/05/09 08:07:39;;;;;;;;;;;37.00;16.50;;;;;;5090195;28;19917;-88
2022/05/09 08:10:05;;;;;;;;;;;37.30;16.10;;;;;;5087833;28;19971;-88
2022/05/09 08:12:30;;;;;;;;;;;37.40;15.90;;;;;;5082388;28;19992;-87
2022/05/09 08:14:56;;;;;;;;;;;37.50;15.70;;;;;;5081833;28;19912;-87
2022/05/09 08:17:21;;;;;;;;;;;37.50;15.40;;;;;;5094055;28;19912;-88
2022/05/09 08:19:50;;;;;;;;;;;37.60;15.60;;;;;;5093283;28;19939;-88
2022/05/09 08:22:18;;;;;;;;;;;37.60;15.50;;;;;;5091708;28;19960;-87
2022/05/09 08:24:44;;;;;;;;;;;37.80;15.40;;;;;;5090147;28;19927;-87
2022/05/09 08:27:09;;;;;;;;;;;38.00;15.50;;;;;;5059853;28;19913;-87
2022/05/09 08:29:35;;;;;;;;;;;38.20;15.30;;;;;;5082790;28;19904;-87
2022/05/09 08:32:00;;;;;;;;;;;38.20;14.60;;;;;;5094602;28;19924;-87
2022/05/09 08:34:25;;;;;;;;;;;38.20;14.80;;;;;;5094394;28;19939;-87
2022/05/09 08:36:53;;;;;;;;;;;38.30;14.70;;;;;;5078595;28;19916;-87
2022/05/09 08:39:19;;;;;;;;;;;38.30;14.90;;;;;;5078322;28;19928;-87
2022/05/09 08:41:51;;;;;;;;;;;38.50;14.60;;;;;;5084043;28;19927;-88
2022/05/09 08:44:39;;;;;;;;;;;38.40;14.50;;;;;;5077161;28;19908;-86
2022/05/09 08:47:24;;;;;;;;;;;38.60;14.40;;;;;;5060438;28;19939;-86
2022/05/09 08:50:01;;;;;;;;;;;38.70;14.20;;;;;;5082564;28;20007;-86
2022/05/09 08:52:56;;;;;;;;;;;38.80;14.30;;;;;;5084806;28;19921;-87
2022/05/09 08:55:27;;;;;;;;;;;39.00;14.10;;;;;;5065310;28;19925;-87
2022/05/09 08:58:00;;;;;;;;;;;38.90;13.40;;;;;;5075900;28;19921;-87
2022/05/09 09:00:29;;;;;;;;;;;38.70;13.60;;;;;;5071862;28;20011;-87
2022/05/09 09:02:56;;;;;;;;;;;38.70;14.00;;;;;;5061498;28;20102;-87
2022/05/09 09:05:23;;;;;;;;;;;39.10;13.80;;;;;;5066366;28;20368;-87
2022/05/09 09:08:07;;;;;;;;;;;39.10;13.50;;;;;;5068591;28;20015;-87
2022/05/09 09:10:41;;;;;;;;;;;39.20;13.50;;;;;;5066605;28;19923;-87
2022/05/09 09:13:23;;;;;;;;;;;39.20;13.20;;;;;;5059241;28;19965;-87
2022/05/09 09:15:58;;;;;;;;;;;39.30;13.30;;;;;;5062077;28;19966;-87
2022/05/09 09:18:32;;;;;;;;;;;39.50;13.20;;;;;;5059414;28;19935;-86
2022/05/09 09:20:58;;;;;;;;;;;39.60;13.30;;;;;;5069380;28;20372;-86
2022/05/09 09:23:42;;;;;;;;;;;39.80;13.20;;;;;;5081774;28;20007;-86
2022/05/09 09:26:12;;;;;;;;;;;39.80;13.00;;;;;;5067631;28;19958;-86
2022/05/09 09:28:49;;;;;;;;;;;40.00;13.10;;;;;;5067012;28;19928;-87
2022/05/09 09:31:17;;;;;;;;;;;40.10;12.90;;;;;;5049051;28;19959;-86
2022/05/09 09:33:47;;;;;;;;;;;40.10;12.90;;;;;;5076561;28;19930;-87
2022/05/09 09:36:13;;;;;;;;;;;40.10;12.80;;;;;;5071636;28;19915;-88
2022/05/09 09:38:42;;;;;;;;;;;40.20;13.00;;;;;;5071628;28;20402;-88
2022/05/09 09:41:37;;;;;;;;;;;40.20;13.00;;;;;;5061455;28;19913;-88
2022/05/09 09:44:08;;;;;;;;;;;40.30;13.00;;;;;;5050774;28;19942;-88
2022/05/09 09:46:54;;;;;;;;;;;40.30;13.10;;;;;;5073319;28;19974;-87
2022/05/09 09:49:19;;;;;;;;;;;40.40;12.60;;;;;;5064786;28;19916;-87
2022/05/09 09:51:46;;;;;;;;;;;40.30;12.80;;;;;;5062892;28;19970;-87
2022/05/09 09:54:12;;;;;;;;;;;40.20;13.10;;;;;;5069119;28;19923;-87
2022/05/09 09:56:38;;;;;;;;;;;40.30;13.20;;;;;;5071977;28;19920;-87
2022/05/09 09:59:23;;;;;;;;;;;40.30;13.10;;;;;;5068629;28;19962;-86
2022/05/09 10:02:00;;;;;;;;;;;40.10;13.20;;;;;;5069784;28;19938;-87
2022/05/09 10:04:27;;;;;;;;;;;40.10;13.10;;;;;;5070798;28;19920;-88
2022/05/09 10:06:55;;;;;;;;;;;40.10;13.10;;;;;;5070315;28;20305;-88
2022/05/09 10:09:21;;;;;;;;;;;40.10;13.20;;;;;;5070873;28;20346;-86
2022/05/09 10:11:46;;;;;;;;;;;40.20;13.30;;;;;;5070464;28;20004;-86
2022/05/09 10:14:29;;;;;;;;;;;40.30;13.10;;;;;;5070419;28;19919;-87
2022/05/09 10:17:11;;;;;;;;;;;40.30;13.00;;;;;;5059260;28;19924;-86
2022/05/09 10:19:37;;;;;;;;;;;40.40;12.90;;;;;;5067843;28;19971;-87
2022/05/09 10:24:57;;;;;;;;;;;40.70;13.00;;;;;;5070109;28;20391;-87
2022/05/09 10:27:22;;;;;;;;;;;40.70;13.00;;;;;;5070132;28;19959;-87
2022/05/09 10:29:50;;;;;;;;;;;40.70;13.00;;;;;;5063682;28;19990;-87
2022/05/09 10:32:38;;;;;;;;;;;40.80;12.80;;;;;;5062878;28;19917;-86
2022/05/09 10:35:10;;;;;;;;;;;40.80;12.90;;;;;;5023286;28;19924;-86
2022/05/09 10:37:45;;;;;;;;;;;40.80;13.00;;;;;;5064462;28;20003;-87
2022/05/09 10:40:15;;;;;;;;;;;40.70;13.10;;;;;;5072373;28;20263;-87
2022/05/09 10:42:44;;;;;;;;;;;40.40;13.10;;;;;;5066447;28;20360;-87
2022/05/09 10:45:31;;;;;;;;;;;40.50;13.30;;;;;;5074463;28;20378;-86
2022/05/09 10:48:00;;;;;;;;;;;40.50;13.20;;;;;;5074844;28;20011;-87
2022/05/09 10:50:29;;;;;;;;;;;40.40;13.30;;;;;;5055737;28;19916;-88
2022/05/09 10:53:06;;;;;;;;;;;40.20;13.20;;;;;;5055621;28;20323;-88
2022/05/09 10:55:34;;;;;;;;;;;39.80;13.50;;;;;;5069461;28;20388;-88
2022/05/09 10:58:02;;;;;;;;;;;39.80;13.70;;;;;;5069849;28;19932;-87
2022/05/09 11:00:30;;;;;;;;;;;39.80;13.70;;;;;;5069926;28;19916;-86
2022/05/09 11:02:59;;;;;;;;;;;39.90;13.70;;;;;;5064006;28;19921;-87
2022/05/09 11:05:26;;;;;;;;;;;40.10;13.80;;;;;;5066512;28;20383;-87
2022/05/09 11:07:57;;;;;;;;;;;40.10;13.50;;;;;;5069380;28;19924;-88
2022/05/09 11:10:25;;;;;;;;;;;40.00;13.70;;;;;;5057852;28;19951;-87
2022/05/09 11:13:14;;;;;;;;;;;40.30;13.60;;;;;;5066810;28;20417;-87
2022/05/09 11:15:48;;;;;;;;;;;40.70;13.60;;;;;;5064532;28;19927;-87
2022/05/09 11:18:21;;;;;;;;;;;41.10;13.40;;;;;;5057296;28;20596;-87
2022/05/09 11:20:52;;;;;;;;;;;40.90;13.40;;;;;;5056948;28;19966;-88
2022/05/09 11:23:32;;;;;;;;;;;40.90;13.40;;;;;;5056686;28;19993;-87
2022/05/09 11:26:09;;;;;;;;;;;41.00;13.30;;;;;;5060522;28;19916;-87
2022/05/09 11:29:07;;;;;;;;;;;41.20;13.50;;;;;;5066937;28;19923;-88
2022/05/09 11:31:51;;;;;;;;;;;41.20;13.30;;;;;;5030017;28;19997;-87
2022/05/09 11:34:35;;;;;;;;;;;41.20;13.50;;;;;;5070235;28;19916;-88
2022/05/09 11:37:09;;;;;;;;;;;41.00;13.40;;;;;;5075187;28;19973;-87
2022/05/09 11:39:46;;;;;;;;;;;41.30;13.40;;;;;;5072367;28;19916;-87
2022/05/09 11:45:10;;;;;;;;;;;41.10;13.30;;;;;;5072299;28;19928;-88
2022/05/09 11:47:48;;;;;;;;;;;40.80;13.60;;;;;;5064075;28;20352;-86
2022/05/09 11:50:27;;;;;;;;;;;40.40;13.70;;;;;;5072533;28;20422;-87
2022/05/09 11:52:55;;;;;;;;;;;40.20;13.70;;;;;;5071866;28;20019;-87
2022/05/09 11:55:22;;;;;;;;;;;40.10;13.90;;;;;;5071927;28;19979;-87
2022/05/09 11:57:50;;;;;;;;;;;40.00;13.90;;;;;;5063461;28;19924;-87
2022/05/09 12:00:25;;;;;;;;;;;39.90;14.00;;;;;;5071671;28;19916;-87
2022/05/09 12:02:53;;;;;;;;;;;39.80;14.20;;;;;;5069457;28;19924;-87
2022/05/09 12:05:29;;;;;;;;;;;39.40;14.40;;;;;;5059992;28;19921;-87
2022/05/09 12:08:13;;;;;;;;;;;39.40;14.50;;;;;;5069292;28;19928;-87
2022/05/09 12:10:40;;;;;;;;;;;39.60;14.50;;;;;;5063334;28;19917;-86
2022/05/09 12:13:15;;;;;;;;;;;39.70;14.50;;;;;;5071192;28;19920;-87
2022/05/09 12:16:00;;;;;;;;;;;39.70;14.60;;;;;;5070561;28;19982;-88
2022/05/09 12:18:45;;;;;;;;;;;39.80;14.50;;;;;;5065467;28;19974;-87
2022/05/09 12:21:34;;;;;;;;;;;40.00;14.50;;;;;;5066008;28;19913;-88
2022/05/09 12:24:16;;;;;;;;;;;40.10;14.50;;;;;;5056943;28;20446;-88
2022/05/09 12:26:53;;;;;;;;;;;40.00;14.30;;;;;;5066354;28;19922;-87
2022/05/09 12:29:18;;;;;;;;;;;40.10;14.20;;;;;;5070080;28;19916;-88
2022/05/09 12:31:48;;;;;;;;;;;40.10;14.30;;;;;;5056642;28;20344;-87
2022/05/09 12:34:15;;;;;;;;;;;40.20;14.30;;;;;;5082507;28;19916;-88
2022/05/09 12:36:41;;;;;;;;;;;40.10;14.40;;;;;;5060842;28;19920;-87
2022/05/09 12:39:16;;;;;;;;;;;40.20;14.30;;;;;;5064935;28;19920;-87
2022/05/09 12:41:45;;;;;;;;;;;40.30;14.40;;;;;;5069738;28;19917;-88
2022/05/09 12:44:26;;;;;;;;;;;40.60;14.30;;;;;;5062599;28;19928;-86
2022/05/09 12:46:51;;;;;;;;;;;40.40;14.20;;;;;;5078587;28;19948;-87
2022/05/09 12:49:20;;;;;;;;;;;40.00;14.20;;;;;;5060823;28;19956;-85
2022/05/09 12:51:47;;;;;;;;;;;39.90;14.60;;;;;;5067264;28;19916;-86
2022/05/09 12:54:14;;;;;;;;;;;40.10;14.70;;;;;;5060633;28;19920;-87
2022/05/09 12:56:47;;;;;;;;;;;40.20;14.60;;;;;;5067747;28;19947;-86
2022/05/09 12:59:14;;;;;;;;;;;40.30;14.50;;;;;;5070365;28;19927;-86
2022/05/09 13:01:49;;;;;;;;;;;40.60;14.50;;;;;;5071282;28;19919;-88
2022/05/09 13:04:19;;;;;;;;;;;40.70;14.30;;;;;;5069306;28;20018;-87
2022/05/09 13:06:46;;;;;;;;;;;40.60;14.30;;;;;;5063852;28;19958;-87
2022/05/09 13:09:23;;;;;;;;;;;40.50;14.30;;;;;;5061163;28;19912;-86
2022/05/09 13:11:50;;;;;;;;;;;40.30;14.50;;;;;;5060607;28;19938;-88
2022/05/09 13:14:18;;;;;;;;;;;40.10;14.70;;;;;;5071360;28;19923;-86
2022/05/09 13:16:51;;;;;;;;;;;39.70;14.70;;;;;;5066066;28;19929;-87
2022/05/09 13:19:16;;;;;;;;;;;39.50;14.90;;;;;;5067384;28;20011;-87
2022/05/09 13:21:42;;;;;;;;;;;39.40;15.00;;;;;;5067469;28;19999;-87
2022/05/09 13:24:14;;;;;;;;;;;39.40;14.80;;;;;;5071694;28;20384;-87
2022/05/09 13:26:44;;;;;;;;;;;39.50;14.90;;;;;;5072055;28;19999;-87
2022/05/09 13:29:10;;;;;;;;;;;39.80;14.90;;;;;;5067455;28;19917;-87
2022/05/09 13:31:40;;;;;;;;;;;40.00;15.00;;;;;;5063678;28;19943;-87
2022/05/09 13:34:16;;;;;;;;;;;40.30;14.90;;;;;;5067501;28;20034;-87
2022/05/09 13:36:41;;;;;;;;;;;40.60;14.60;;;;;;5072713;28;19921;-88
2022/05/09 13:39:07;;;;;;;;;;;40.80;14.60;;;;;;5057671;28;19923;-88
2022/05/09 13:41:35;;;;;;;;;;;40.90;14.60;;;;;;5071574;28;19927;-88
2022/05/09 13:44:01;;;;;;;;;;;41.10;14.50;;;;;;5072858;28;19920;-87
2022/05/09 13:46:31;;;;;;;;;;;41.00;14.10;;;;;;5072806;28;20007;-88
2022/05/09 13:49:01;;;;;;;;;;;40.60;14.30;;;;;;5061681;28;19916;-87
2022/05/09 13:51:31;;;;;;;;;;;40.50;14.40;;;;;;5061961;28;19928;-85
2022/05/09 13:53:59;;;;;;;;;;;40.70;14.30;;;;;;5059572;28;19912;-87
2022/05/09 13:56:26;;;;;;;;;;;40.90;14.30;;;;;;5056381;28;20153;-87
2022/05/09 13:58:57;;;;;;;;;;;40.70;13.90;;;;;;5069288;28;19923;-87
2022/05/09 14:01:23;;;;;;;;;;;40.60;14.00;;;;;;5058750;28;19923;-87
2022/05/09 14:03:52;;;;;;;;;;;40.50;14.10;;;;;;5071616;28;19918;-85
2022/05/09 14:06:19;;;;;;;;;;;40.10;14.30;;;;;;5072545;28;20069;-87
2022/05/09 14:08:46;;;;;;;;;;;39.50;14.40;;;;;;5069208;28;19923;-86
2022/05/09 14:11:12;;;;;;;;;;;38.70;14.70;;;;;;5058999;28;19927;-87
2022/05/09 14:13:46;;;;;;;;;;;38.30;15.10;;;;;;5064090;28;19916;-87
2022/05/09 14:16:16;;;;;;;;;;;37.70;15.30;;;;;;5066531;28;19916;-88
2022/05/09 14:18:42;;;;;;;;;;;37.10;15.70;;;;;;5063102;28;19926;-87
2022/05/09 14:21:14;;;;;;;;;;;36.50;16.10;;;;;;5054348;28;20414;-87
2022/05/09 14:23:45;;;;;;;;;;;35.90;16.50;;;;;;5066989;28;19920;-87
2022/05/09 14:31:50;;;;;;;;;;;34.30;17.40;;;;;;5066403;28;19928;-86
2022/05/09 14:34:22;;;;;;;;;;;33.70;17.90;;;;;;5061211;28;19917;-86
2022/05/09 14:37:06;;;;;;;;;;;33.30;18.50;;;;;;5067098;28;20284;-86
2022/05/09 14:39:32;;;;;;;;;;;33.20;19.00;;;;;;5067054;28;19920;-86
2022/05/09 14:42:10;;;;;;;;;;;33.00;19.10;;;;;;5057341;28;19920;-87